createdAt,value
2018-10-12T12:12:03.393Z,63.17
2018-10-12T12:13:03.429Z,63.84
2018-10-12T12:14:03.383Z,62.77
2018-10-12T12:15:03.343Z,62.13
2018-10-12T12:16:03.330Z,61.57
2018-10-12T12:17:03.313Z,60.17
2018-10-12T12:18:03.312Z,60.39
2018-10-12T12:19:03.294Z,58.87
2018-10-12T12:20:03.281Z,58.02
2018-10-12T12:21:03.266Z,57.70
2018-10-12T12:22:03.252Z,57.34
2018-10-12T12:23:03.259Z,57.04
2018-10-12T12:24:03.234Z,57.14
2018-10-12T12:25:03.221Z,56.52
2018-10-12T12:26:03.208Z,57.63
2018-10-12T12:27:03.199Z,57.73
2018-10-12T12:28:03.206Z,57.63
2018-10-12T12:29:03.181Z,57.53
2018-10-12T12:30:03.172Z,57.73
2018-10-12T12:31:03.159Z,56.46
2018-10-12T12:32:03.147Z,56.68
2018-10-12T12:33:03.155Z,56.38
2018-10-12T12:34:03.124Z,55.58
2018-10-12T12:35:03.228Z,55.71
2018-10-12T12:36:03.228Z,55.12
2018-10-12T12:37:03.102Z,55.87
2018-10-12T12:38:03.112Z,56.62
2018-10-12T12:39:03.080Z,56.50
2018-10-12T12:40:03.122Z,56.57
2018-10-12T12:41:03.066Z,57.64
2018-10-12T12:42:03.052Z,57.06
2018-10-12T12:43:03.043Z,57.28
2018-10-12T12:44:03.052Z,56.52
2018-10-12T12:45:03.023Z,56.62
2018-10-12T12:46:03.011Z,57.60
2018-10-12T12:47:03.060Z,58.42
2018-10-12T12:48:03.152Z,58.81
2018-10-12T12:49:03.191Z,57.84
2018-10-12T12:50:02.976Z,57.86
2018-10-12T12:51:02.968Z,57.11
2018-10-12T12:52:02.957Z,56.46
2018-10-12T12:53:02.951Z,56.16
2018-10-12T12:54:02.942Z,56.62
2018-10-12T12:55:02.948Z,55.87
2018-10-12T12:56:02.919Z,55.87
2018-10-12T12:57:02.911Z,55.97
2018-10-12T12:58:02.903Z,55.71
2018-10-12T12:59:03.344Z,55.51
2018-10-12T13:00:02.956Z,55.90
2018-10-12T13:01:02.879Z,55.90
2018-10-12T13:02:02.868Z,55.71
2018-10-12T13:03:02.855Z,55.63
2018-10-12T13:04:02.848Z,55.63
2018-10-12T13:05:02.843Z,55.87
2018-10-12T13:06:02.845Z,55.58
2018-10-12T13:07:02.820Z,56.36
2018-10-12T13:08:02.813Z,56.75
2018-10-12T13:09:02.800Z,55.58
2018-10-12T13:10:02.810Z,55.63
2018-10-12T13:11:02.783Z,55.27
2018-10-12T13:12:02.772Z,54.75
2018-10-12T13:13:02.766Z,54.66
2018-10-12T13:14:02.755Z,54.69
2018-10-12T13:15:02.784Z,54.63
2018-10-12T13:16:02.741Z,54.73
2018-10-12T13:17:02.731Z,55.48
2018-10-12T13:18:02.722Z,54.63
2018-10-12T13:19:02.716Z,54.36
2018-10-12T13:20:02.703Z,54.53
2018-10-12T13:21:02.713Z,54.99
2018-10-12T13:22:02.684Z,55.43
2018-10-12T13:23:02.680Z,54.68
2018-10-12T13:24:02.665Z,56.33
2018-10-12T13:25:02.681Z,57.15
2018-10-12T13:26:02.787Z,57.06
2018-10-12T13:27:02.653Z,58.13
2018-10-12T13:28:02.637Z,57.93
2018-10-12T13:29:02.626Z,57.25
2018-10-12T13:30:02.615Z,57.15
2018-10-12T13:31:02.624Z,56.60
2018-10-12T13:32:02.714Z,57.93
2018-10-12T13:33:02.590Z,57.76
2018-10-12T13:34:02.578Z,57.57
2018-10-12T13:35:02.573Z,57.45
2018-10-12T13:36:02.579Z,56.47
2018-10-12T13:37:02.554Z,56.57
2018-10-12T13:38:02.547Z,56.93
2018-10-12T13:39:02.537Z,57.61
2018-10-12T13:40:02.593Z,57.81
2018-10-12T13:41:02.536Z,58.29
2018-10-12T13:42:02.511Z,58.49
2018-10-12T13:43:02.503Z,58.65
2018-10-12T13:44:02.497Z,58.56
2018-10-12T13:45:02.485Z,57.61
2018-10-12T13:46:02.562Z,58.03
2018-10-12T13:47:02.464Z,57.35
2018-10-12T13:48:02.456Z,56.47
2018-10-12T13:49:02.452Z,56.50
2018-10-12T13:50:02.440Z,54.68
2018-10-12T13:51:02.434Z,54.21
2018-10-12T13:52:02.448Z,54.73
2018-10-12T13:53:02.438Z,53.19
2018-10-12T13:54:02.408Z,51.73
2018-10-12T13:55:02.411Z,52.15
2018-10-12T13:56:02.395Z,52.08
2018-10-12T13:57:02.386Z,51.51
2018-10-12T13:58:02.413Z,50.93
2018-10-12T13:59:02.370Z,50.95
2018-10-12T14:00:02.365Z,49.95
2018-10-12T14:01:02.356Z,50.63
2018-10-12T14:02:02.351Z,49.58
2018-10-12T14:03:02.359Z,50.59
2018-10-12T14:04:02.334Z,52.00
2018-10-12T14:05:02.328Z,53.41
2018-10-12T14:06:02.419Z,54.75
2018-10-12T14:07:02.309Z,56.05
2018-10-12T14:08:02.342Z,56.81
2018-10-12T14:09:02.332Z,57.17
2018-10-12T14:10:02.322Z,57.56
2018-10-12T14:11:02.284Z,57.26
2018-10-12T14:12:02.288Z,57.17
2018-10-12T14:13:02.330Z,57.33
2018-10-12T14:14:02.259Z,56.87
2018-10-12T14:15:02.266Z,55.86
2018-10-12T14:16:02.243Z,54.55
2018-10-12T14:17:02.232Z,53.60
2018-10-12T14:18:02.293Z,53.09
2018-10-12T14:19:02.485Z,53.58
2018-10-12T14:20:02.280Z,53.87
2018-10-12T14:21:02.333Z,53.09
2018-10-12T14:22:02.206Z,53.97
2018-10-12T14:23:02.224Z,52.92
2018-10-12T14:24:02.221Z,52.80
2018-10-12T14:25:02.191Z,53.09
2018-10-12T14:26:02.198Z,54.21
2018-10-12T14:27:02.171Z,54.76
2018-10-12T14:28:02.220Z,55.51
2018-10-12T14:29:02.157Z,55.90
2018-10-12T14:30:02.133Z,57.33
2018-10-12T14:31:02.124Z,57.53
2018-10-12T14:32:02.142Z,58.57
2018-10-12T14:33:02.127Z,58.95
2018-10-12T14:34:02.135Z,59.41
2018-10-12T14:35:02.089Z,59.41
2018-10-12T14:36:02.095Z,59.22
2018-10-12T14:37:02.076Z,59.22
2018-10-12T14:38:02.141Z,60.16
2018-10-12T14:39:02.075Z,60.00
2018-10-12T14:40:02.137Z,59.77
2018-10-12T14:41:02.097Z,60.74
2018-10-12T14:42:02.022Z,60.55
2018-10-12T14:43:02.516Z,61.04
2018-10-12T14:44:02.177Z,60.64
2018-10-12T14:45:02.163Z,60.55
2018-10-12T14:46:02.097Z,60.84
2018-10-12T14:47:02.020Z,61.91
2018-10-12T14:48:01.995Z,62.01
2018-10-12T14:49:01.993Z,62.01
2018-10-12T14:50:02.519Z,62.19
2018-10-12T14:51:02.002Z,62.10
2018-10-12T14:52:01.960Z,62.26
2018-10-12T14:53:02.609Z,62.10
2018-10-12T14:54:01.934Z,61.91
2018-10-12T14:55:02.004Z,62.29
2018-10-12T14:56:01.971Z,62.10
2018-10-12T14:57:01.913Z,62.98
2018-10-12T14:58:01.906Z,62.29
2018-10-12T14:59:02.007Z,63.07
2018-10-12T15:00:01.887Z,62.98
2018-10-12T15:01:01.873Z,63.04
2018-10-12T15:02:01.901Z,63.17
2018-10-12T15:03:01.851Z,63.75
2018-10-12T15:04:01.835Z,65.01
2018-10-12T15:05:01.829Z,64.59
2018-10-12T15:06:01.840Z,64.88
2018-10-12T15:07:01.817Z,64.30
2018-10-12T15:08:01.918Z,64.20
2018-10-12T15:09:01.797Z,64.59
2018-10-12T15:10:01.779Z,65.85
2018-10-12T15:11:01.761Z,65.56
2018-10-12T15:12:01.742Z,65.66
2018-10-12T15:13:01.776Z,65.56
2018-10-12T15:14:01.718Z,65.82
2018-10-12T15:15:01.714Z,66.60
2018-10-12T15:16:01.704Z,64.69
2018-10-12T15:17:01.718Z,65.05
2018-10-12T15:18:01.679Z,65.75
2018-10-12T15:19:01.689Z,65.56
2018-10-12T15:20:01.663Z,65.75
2018-10-12T15:21:01.779Z,65.47
2018-10-12T15:22:01.641Z,66.34
2018-10-12T15:23:01.633Z,65.72
2018-10-12T15:24:01.625Z,65.43
2018-10-12T15:25:01.631Z,66.50
2018-10-12T15:26:01.603Z,66.11
2018-10-12T15:27:01.591Z,66.50
2018-10-12T15:28:01.579Z,66.20
2018-10-12T15:29:01.569Z,67.66
2018-10-12T15:30:01.573Z,67.08
2018-10-12T15:31:01.547Z,67.76
2018-10-12T15:32:01.569Z,67.85
2018-10-12T15:33:01.528Z,67.92
2018-10-12T15:34:01.516Z,67.92
2018-10-12T15:35:01.530Z,67.92
2018-10-12T15:36:01.497Z,67.92
2018-10-12T15:37:01.496Z,67.92
2018-10-12T15:38:01.474Z,68.50
2018-10-12T15:39:01.467Z,68.12
2018-10-12T15:40:01.453Z,68.30
2018-10-12T15:41:01.461Z,67.82
2018-10-12T15:42:01.434Z,68.30
2018-10-12T15:43:01.564Z,68.50
2018-10-12T15:44:01.412Z,69.18
2018-10-12T15:45:01.409Z,68.70
2018-10-12T15:46:01.414Z,69.18
2018-10-12T15:47:01.383Z,68.79
2018-10-12T15:48:01.371Z,69.18
2018-10-12T15:49:01.359Z,69.18
2018-10-12T15:50:01.352Z,69.27
2018-10-12T15:51:01.422Z,69.73
2018-10-12T15:52:01.326Z,70.40
2018-10-12T15:53:01.318Z,70.31
2018-10-12T15:54:01.305Z,70.60
2018-10-12T15:55:01.297Z,70.79
2018-10-12T15:56:01.321Z,71.76
2018-10-12T15:57:01.285Z,70.37
2018-10-12T15:58:01.297Z,71.34
2018-10-12T15:59:01.250Z,71.92
2018-10-12T16:00:01.241Z,72.40
2018-10-12T16:01:01.229Z,72.30
2018-10-12T16:02:01.239Z,72.21
2018-10-12T16:03:01.219Z,72.89
2018-10-12T16:04:01.196Z,72.56
2018-10-12T16:05:01.192Z,72.85
2018-10-12T16:06:01.211Z,73.53
2018-10-12T16:07:01.160Z,73.33
2018-10-12T16:08:01.152Z,73.72
2018-10-12T16:09:01.141Z,73.72
2018-10-12T16:10:01.130Z,73.82
2018-10-12T16:11:01.118Z,74.30
2018-10-12T16:12:01.130Z,74.36
2018-10-12T16:13:01.103Z,74.27
2018-10-12T16:14:01.085Z,75.23
2018-10-12T16:15:01.090Z,74.85
2018-10-12T16:16:01.064Z,75.13
2018-10-12T16:17:01.072Z,75.13
2018-10-12T16:18:01.048Z,75.87
2018-10-12T16:19:01.031Z,76.06
2018-10-12T16:20:01.018Z,75.87
2018-10-12T16:21:01.015Z,75.97
2018-10-12T16:22:01.047Z,77.71
2018-10-12T16:23:01.004Z,77.22
2018-10-12T16:24:00.968Z,77.51
2018-10-12T16:25:00.970Z,78.15
2018-10-12T16:26:00.959Z,78.15
2018-10-12T16:27:01.050Z,78.83
2018-10-12T16:28:00.948Z,78.92
2018-10-12T16:29:00.964Z,79.80
2018-10-12T16:30:00.922Z,78.64
2018-10-12T16:31:00.916Z,79.22
2018-10-12T16:32:00.906Z,79.31
2018-10-12T16:33:00.883Z,78.92
2018-10-12T16:34:00.882Z,79.12
2018-10-12T16:35:00.870Z,79.02
2018-10-12T16:36:00.967Z,78.83
2018-10-12T16:37:00.855Z,78.83
2018-10-12T16:38:00.826Z,79.02
2018-10-12T16:39:00.828Z,79.22
2018-10-12T16:40:00.783Z,79.80
2018-10-12T16:41:00.815Z,79.99
2018-10-12T16:42:00.759Z,79.66
2018-10-12T16:43:00.754Z,79.12
2018-10-12T16:44:00.760Z,79.56
2018-10-12T16:45:00.772Z,79.75
2018-10-12T16:46:00.729Z,79.75
2018-10-12T16:47:00.706Z,79.95
2018-10-12T16:48:00.693Z,79.85
2018-10-12T16:49:00.738Z,79.95
2018-10-12T16:50:00.675Z,79.85
2018-10-12T16:51:00.647Z,79.95
2018-10-12T16:52:00.636Z,80.43
2018-10-12T16:53:00.620Z,80.62
2018-10-12T16:54:00.608Z,80.82
2018-10-12T16:55:00.618Z,81.40
2018-10-12T16:56:00.585Z,81.84
2018-10-12T16:57:00.574Z,81.84
2018-10-12T16:58:00.642Z,81.26
2018-10-12T16:59:00.553Z,82.03
2018-10-12T17:00:00.537Z,81.74
2018-10-12T17:01:00.539Z,81.74
2018-10-12T17:02:00.510Z,82.23
2018-10-12T17:03:00.496Z,82.51
2018-10-12T17:04:00.528Z,83.00
2018-10-12T17:05:00.485Z,83.48
2018-10-12T17:06:00.507Z,83.67
2018-10-12T17:07:00.451Z,83.92
2018-10-12T17:08:00.436Z,84.41
2018-10-12T17:09:00.451Z,83.92
2018-10-12T17:10:00.410Z,84.79
2018-10-12T17:11:00.417Z,84.69
2018-10-12T17:12:00.387Z,85.08
2018-10-12T17:13:00.385Z,85.23
2018-10-12T17:14:00.390Z,85.23
2018-10-12T17:15:00.370Z,86.29
2018-10-12T17:16:00.381Z,86.29
2018-10-12T17:17:00.383Z,86.19
2018-10-12T17:18:00.319Z,86.19
2018-10-12T17:19:00.354Z,86.29
2018-10-12T17:20:00.323Z,86.48
2018-10-12T17:21:00.287Z,86.96
2018-10-12T17:22:00.315Z,86.48
2018-10-12T17:23:00.262Z,86.48
2018-10-12T17:24:00.255Z,87.35
2018-10-12T17:25:00.322Z,87.16
2018-10-12T17:26:00.228Z,86.87
2018-10-12T17:27:00.241Z,87.45
2018-10-12T17:28:00.196Z,87.45
2018-10-12T17:29:00.215Z,87.06
2018-10-12T17:30:00.178Z,86.87
2018-10-12T17:31:00.167Z,87.54
2018-10-12T17:32:00.166Z,87.16
2018-10-12T17:33:00.160Z,87.74
2018-10-12T17:34:00.119Z,87.35
2018-10-12T17:35:00.119Z,87.70
2018-10-12T17:36:00.089Z,88.41
2018-10-12T17:37:00.095Z,88.46
2018-10-12T17:38:00.102Z,87.60
2018-10-12T17:39:00.062Z,88.46
2018-10-12T17:40:00.057Z,88.08
2018-10-12T17:41:00.054Z,88.27
2018-10-12T17:42:00.027Z,88.08
2018-10-12T17:43:00.145Z,88.08
2018-10-12T17:44:00.012Z,88.65
2018-10-12T17:44:59.984Z,88.65
2018-10-12T17:45:59.980Z,89.23
2018-10-12T17:46:59.970Z,89.14
2018-10-12T17:47:59.931Z,89.81
2018-10-12T17:48:59.957Z,89.86
2018-10-12T17:49:59.933Z,90.25
2018-10-12T17:50:59.900Z,91.41
2018-10-12T17:51:59.893Z,92.37
2018-10-12T17:52:59.879Z,92.94
2018-10-12T17:53:59.863Z,93.67
2018-10-12T17:54:59.856Z,94.25
2018-10-12T17:55:59.860Z,94.25
2018-10-12T17:56:59.848Z,94.92
2018-10-12T17:57:59.791Z,95.21
2018-10-12T17:58:59.872Z,95.02
2018-10-12T17:59:59.860Z,95.50
2018-10-12T18:00:59.881Z,95.69
2018-10-12T18:01:59.950Z,95.69
2018-10-12T18:02:59.814Z,96.37
2018-10-12T18:03:59.767Z,96.80
2018-10-12T18:04:59.780Z,96.22
2018-10-12T18:05:59.729Z,96.99
2018-10-12T18:06:59.723Z,96.99
2018-10-12T18:07:59.750Z,97.38
2018-10-12T18:08:59.710Z,97.96
2018-10-12T18:09:59.699Z,98.82
2018-10-12T18:10:59.624Z,97.57
2018-10-12T18:11:59.645Z,97.19
2018-10-12T18:12:59.598Z,96.70
2018-10-12T18:13:59.583Z,96.66
2018-10-12T18:14:59.573Z,96.46
2018-10-12T18:15:59.537Z,96.37
2018-10-12T18:16:59.521Z,96.70
2018-10-12T18:17:59.506Z,96.56
2018-10-12T18:18:59.495Z,96.42
2018-10-12T18:19:59.501Z,97.09
2018-10-12T18:20:59.467Z,97.19
2018-10-12T18:21:59.459Z,97.47
2018-10-12T18:22:59.477Z,98.14
2018-10-12T18:23:59.423Z,97.09
2018-10-12T18:24:59.410Z,98.24
2018-10-12T18:25:59.529Z,97.47
2018-10-12T18:26:59.382Z,96.80
2018-10-12T18:27:59.368Z,96.80
2018-10-12T18:28:59.355Z,97.28
2018-10-12T18:29:59.343Z,97.38
2018-10-12T18:30:59.353Z,97.96
2018-10-12T18:31:59.311Z,99.01
2018-10-12T18:32:59.296Z,98.92
2018-10-12T18:33:59.284Z,99.40
2018-10-12T18:34:59.266Z,98.92
2018-10-12T18:35:59.253Z,98.44
2018-10-12T18:36:59.351Z,98.34
2018-10-12T18:37:59.225Z,98.14
2018-10-12T18:38:59.230Z,97.19
2018-10-12T18:39:59.197Z,96.99
2018-10-12T18:40:59.180Z,97.09
2018-10-12T18:41:59.180Z,97.57
2018-10-12T18:42:59.212Z,97.47
2018-10-12T18:43:59.137Z,99.01
2018-10-12T18:44:59.123Z,98.54
2018-10-12T18:45:59.110Z,99.11
2018-10-12T18:46:59.112Z,99.01
2018-10-12T18:47:59.122Z,99.78
2018-10-12T18:48:59.069Z,99.99
2018-10-12T18:49:59.051Z,99.99
2018-10-12T18:50:59.083Z,99.99
2018-10-12T18:51:59.040Z,99.83
2018-10-12T18:52:59.008Z,99.73
2018-10-12T18:53:59.045Z,99.93
2018-10-12T18:54:58.981Z,99.93
2018-10-12T18:55:58.968Z,99.99
2018-10-12T18:56:58.979Z,99.99
2018-10-12T18:57:58.936Z,99.99
2018-10-12T18:58:58.929Z,99.99
2018-10-12T18:59:58.925Z,99.99
2018-10-12T19:00:58.897Z,99.99
2018-10-12T19:01:58.881Z,99.99
2018-10-12T19:02:58.881Z,99.99
2018-10-12T19:03:58.850Z,99.99
2018-10-12T19:04:58.889Z,99.99
2018-10-12T19:05:58.824Z,99.99
2018-10-12T19:06:58.825Z,99.99
2018-10-12T19:07:58.794Z,99.99
2018-10-12T19:08:58.777Z,99.99
2018-10-12T19:09:58.766Z,99.99
2018-10-12T19:10:58.750Z,99.99
2018-10-12T19:11:58.750Z,99.99
2018-10-12T19:12:58.718Z,99.99
2018-10-12T19:13:58.744Z,99.99
2018-10-12T19:14:58.690Z,99.99
2018-10-12T19:15:58.678Z,99.99
2018-10-12T19:16:58.678Z,99.99
2018-10-12T19:17:58.647Z,99.99
2018-10-12T19:18:58.634Z,99.99
2018-10-12T19:19:58.623Z,99.99
2018-10-12T19:20:58.601Z,99.99
2018-10-12T19:21:58.584Z,99.99
2018-10-12T19:22:58.594Z,99.99
2018-10-12T19:23:58.590Z,99.99
2018-10-12T19:24:58.543Z,99.99
2018-10-12T19:25:58.528Z,99.99
2018-10-12T19:26:58.515Z,99.99
2018-10-12T19:27:58.501Z,99.99
2018-10-12T19:28:58.501Z,99.99
2018-10-12T19:29:58.469Z,99.99
2018-10-12T19:30:58.453Z,99.99
2018-10-12T19:31:58.550Z,99.99
2018-10-12T19:32:58.427Z,99.99
2018-10-12T19:33:58.428Z,99.99
2018-10-12T19:34:58.395Z,99.99
2018-10-12T19:35:58.386Z,99.99
2018-10-12T19:36:58.368Z,99.99
2018-10-12T19:37:58.354Z,99.99
2018-10-12T19:38:58.337Z,99.99
2018-10-12T19:39:58.340Z,99.99
2018-10-12T19:40:58.310Z,99.99
2018-10-12T19:41:58.305Z,99.99
2018-10-12T19:42:58.274Z,99.99
2018-10-12T19:43:58.263Z,99.99
2018-10-12T19:44:58.284Z,99.99
2018-10-12T19:45:58.229Z,99.99
2018-10-12T19:46:58.215Z,99.99
2018-10-12T19:47:58.200Z,99.99
2018-10-12T19:48:58.188Z,99.99
2018-10-12T19:49:58.170Z,99.99
2018-10-12T19:50:58.172Z,99.99
2018-10-12T19:51:58.143Z,99.99
2018-10-12T19:52:58.181Z,99.99
2018-10-12T19:53:58.110Z,99.99
2018-10-12T19:54:58.094Z,99.99
2018-10-12T19:55:58.097Z,99.99
2018-10-12T19:56:58.067Z,99.99
2018-10-12T19:57:58.049Z,99.99
2018-10-12T19:59:05.757Z,99.99
2018-10-12T19:59:58.021Z,99.99
2018-10-12T20:00:58.008Z,99.99
2018-10-12T20:01:58.006Z,99.99
2018-10-12T20:02:57.973Z,99.99
2018-10-12T20:03:57.959Z,99.99
2018-10-12T20:04:57.951Z,99.99
2018-10-12T20:05:57.931Z,99.99
2018-10-12T20:06:57.927Z,99.99
2018-10-12T20:07:57.900Z,99.99
2018-10-12T20:08:57.886Z,99.99
2018-10-12T20:09:57.870Z,99.99
2018-10-12T20:10:57.859Z,99.99
2018-10-12T20:11:57.865Z,99.99
2018-10-12T20:12:57.829Z,99.99
2018-10-12T20:13:57.809Z,99.99
2018-10-12T20:14:57.806Z,99.99
2018-10-12T20:15:57.776Z,99.99
2018-10-12T20:16:57.763Z,99.99
2018-10-12T20:17:57.764Z,99.99
2018-10-12T20:18:57.736Z,99.99
2018-10-12T20:19:57.716Z,99.99
2018-10-12T20:20:57.703Z,99.99
2018-10-12T20:21:57.707Z,99.99
2018-10-12T20:22:57.675Z,99.99
2018-10-12T20:23:57.735Z,99.99
2018-10-12T20:24:57.653Z,99.99
2018-10-12T20:25:57.636Z,99.99
2018-10-12T20:26:57.616Z,99.99
2018-10-12T20:27:57.612Z,99.99
2018-10-12T20:28:57.581Z,99.99
2018-10-12T20:29:57.565Z,99.99
2018-10-12T20:30:57.551Z,99.99
2018-10-12T20:31:57.583Z,99.99
2018-10-12T20:32:57.526Z,99.99
2018-10-12T20:33:57.506Z,99.99
2018-10-12T20:34:57.493Z,99.99
2018-10-12T20:35:57.479Z,99.99
2018-10-12T20:36:57.462Z,99.99
2018-10-12T20:37:57.465Z,99.99
2018-10-12T20:38:57.435Z,99.99
2018-10-12T20:39:57.416Z,99.99
2018-10-12T20:40:57.402Z,99.99
2018-10-12T20:41:57.383Z,99.99
2018-10-12T20:42:57.391Z,99.99
2018-10-12T20:43:57.351Z,99.99
2018-10-12T20:44:57.342Z,99.99
2018-10-12T20:45:57.324Z,99.99
2018-10-12T20:46:57.308Z,99.99
2018-10-12T20:47:57.291Z,99.99
2018-10-12T20:48:57.298Z,99.99
2018-10-12T20:49:57.276Z,99.99
2018-10-12T20:50:57.248Z,99.99
2018-10-12T20:51:57.229Z,99.99
2018-10-12T20:52:57.215Z,99.99
2018-10-12T20:53:57.198Z,99.99
2018-10-12T20:54:57.200Z,99.99
2018-10-12T20:55:57.169Z,99.99
2018-10-12T20:56:57.178Z,99.99
2018-10-12T20:57:57.139Z,99.99
2018-10-12T20:58:57.122Z,99.99
2018-10-12T20:59:57.123Z,99.99
2018-10-12T21:00:57.098Z,99.99
2018-10-12T21:01:57.079Z,99.99
2018-10-12T21:02:57.065Z,99.99
2018-10-12T21:03:57.123Z,99.99
2018-10-12T21:04:57.067Z,99.99
2018-10-12T21:05:57.014Z,99.99
2018-10-12T21:06:57.001Z,99.99
2018-10-12T21:07:56.989Z,99.99
2018-10-12T21:08:56.970Z,99.99
2018-10-12T21:09:56.956Z,99.99
2018-10-12T21:10:56.956Z,99.99
2018-10-12T21:11:56.924Z,99.99
2018-10-12T21:12:56.910Z,99.99
2018-10-12T21:13:56.898Z,99.99
2018-10-12T21:14:56.877Z,99.99
2018-10-12T21:15:56.880Z,99.99
2018-10-12T21:16:56.852Z,99.99
2018-10-12T21:17:56.888Z,99.99
2018-10-12T21:18:56.823Z,99.99
2018-10-12T21:19:56.799Z,99.99
2018-10-12T21:20:56.825Z,99.99
2018-10-12T21:21:56.769Z,99.99
2018-10-12T21:22:56.754Z,99.99
2018-10-12T21:23:56.741Z,99.99
2018-10-12T21:24:56.727Z,99.99
2018-10-12T21:25:56.707Z,99.99
2018-10-12T21:26:56.709Z,99.99
2018-10-12T21:27:56.677Z,99.99
2018-10-12T21:28:56.660Z,99.99
2018-10-12T21:29:56.644Z,99.99
2018-10-12T21:30:56.631Z,99.99
2018-10-12T21:31:56.633Z,99.99
2018-10-12T21:32:56.603Z,99.99
2018-10-12T21:33:56.592Z,99.99
2018-10-12T21:34:56.568Z,99.99
2018-10-12T21:35:56.555Z,99.99
2018-10-12T21:36:56.562Z,99.99
2018-10-12T21:37:56.522Z,99.99
2018-10-12T21:38:56.507Z,99.99
2018-10-12T21:39:56.494Z,99.99
2018-10-12T21:40:56.476Z,99.99
2018-10-12T21:41:56.461Z,99.99
2018-10-12T21:42:56.459Z,99.99
2018-10-12T21:43:56.427Z,99.99
2018-10-12T21:44:56.410Z,99.99
2018-10-12T21:45:56.397Z,99.99
2018-10-12T21:46:56.382Z,99.99
2018-10-12T21:47:56.380Z,99.99
2018-10-12T21:48:56.352Z,99.99
2018-10-12T21:49:56.337Z,99.99
2018-10-12T21:50:56.320Z,99.99
2018-10-12T21:51:56.300Z,99.99
2018-10-12T21:52:56.309Z,99.99
2018-10-12T21:53:56.273Z,99.99
2018-10-12T21:54:56.254Z,99.99
2018-10-12T21:55:56.240Z,99.99
2018-10-12T21:56:56.227Z,99.99
2018-10-12T21:57:56.212Z,99.99
2018-10-12T21:58:56.210Z,99.99
2018-10-12T21:59:56.193Z,99.99
2018-10-12T22:00:56.166Z,99.99
2018-10-12T22:01:56.152Z,99.99
2018-10-12T22:02:56.131Z,99.99
2018-10-12T22:03:56.131Z,99.99
2018-10-12T22:04:56.101Z,99.99
2018-10-12T22:05:56.085Z,99.99
2018-10-12T22:06:56.068Z,99.99
2018-10-12T22:07:56.050Z,99.99
2018-10-12T22:08:56.055Z,99.99
2018-10-12T22:09:56.024Z,99.99
2018-10-12T22:10:56.007Z,99.99
2018-10-12T22:11:55.989Z,99.99
2018-10-12T22:12:55.973Z,99.99
2018-10-12T22:13:56.028Z,99.99
2018-10-12T22:14:55.943Z,99.99
2018-10-12T22:15:55.928Z,99.99
2018-10-12T22:16:55.912Z,99.99
2018-10-12T22:17:55.898Z,99.99
2018-10-12T22:18:55.884Z,99.99
2018-10-12T22:19:55.877Z,99.99
2018-10-12T22:20:55.847Z,99.99
2018-10-12T22:21:55.833Z,99.99
2018-10-12T22:22:55.815Z,99.99
2018-10-12T22:23:55.800Z,99.99
2018-10-12T22:24:55.807Z,99.99
2018-10-12T22:25:55.921Z,99.99
2018-10-12T22:26:55.754Z,99.99
2018-10-12T22:27:55.740Z,99.99
2018-10-12T22:28:55.730Z,99.99
2018-10-12T22:29:55.712Z,99.99
2018-10-12T22:30:55.706Z,99.99
2018-10-12T22:31:55.676Z,99.99
2018-10-12T22:32:55.688Z,99.99
2018-10-12T22:33:55.643Z,99.99
2018-10-12T22:34:55.626Z,99.99
2018-10-12T22:35:55.630Z,99.99
2018-10-12T22:36:55.600Z,99.99
2018-10-12T22:37:55.588Z,99.99
2018-10-12T22:38:55.563Z,99.99
2018-10-12T22:39:55.551Z,99.99
2018-10-12T22:40:55.548Z,99.99
2018-10-12T22:41:55.518Z,99.99
2018-10-12T22:42:55.598Z,99.99
2018-10-12T22:43:55.490Z,99.99
2018-10-12T22:44:55.471Z,99.99
2018-10-12T22:45:55.476Z,99.99
2018-10-12T22:46:55.441Z,99.99
2018-10-12T22:47:55.425Z,99.99
2018-10-12T22:48:55.407Z,99.99
2018-10-12T22:49:55.393Z,99.99
2018-10-12T22:50:55.375Z,99.99
2018-10-12T22:51:55.387Z,99.99
2018-10-12T22:52:55.347Z,99.99
2018-10-12T22:53:55.329Z,99.99
2018-10-12T22:54:55.317Z,99.99
2018-10-12T22:55:55.298Z,99.99
2018-10-12T22:56:55.279Z,99.99
2018-10-12T22:57:55.287Z,99.99
2018-10-12T22:58:55.254Z,99.99
2018-10-12T22:59:55.242Z,99.99
2018-10-12T23:00:55.224Z,99.99
2018-10-12T23:01:55.206Z,99.99
2018-10-12T23:02:55.188Z,99.99
2018-10-12T23:03:55.195Z,99.99
2018-10-12T23:04:55.159Z,99.99
2018-10-12T23:05:55.141Z,99.99
2018-10-12T23:06:55.125Z,99.99
2018-10-12T23:07:55.109Z,99.99
2018-10-12T23:08:55.132Z,99.99
2018-10-12T23:09:55.077Z,99.99
2018-10-12T23:10:55.060Z,99.99
2018-10-12T23:11:55.050Z,99.99
2018-10-12T23:12:55.038Z,99.99
2018-10-12T23:13:55.014Z,99.99
2018-10-12T23:14:55.016Z,99.99
2018-10-12T23:15:54.984Z,99.99
2018-10-12T23:16:54.973Z,99.99
2018-10-12T23:17:54.953Z,99.99
2018-10-12T23:18:54.936Z,99.99
2018-10-12T23:19:54.939Z,99.99
2018-10-12T23:20:54.907Z,99.99
2018-10-12T23:21:54.891Z,99.99
2018-10-12T23:22:54.873Z,99.99
2018-10-12T23:23:54.860Z,99.99
2018-10-12T23:24:54.877Z,99.99
2018-10-12T23:25:54.831Z,99.99
2018-10-12T23:26:54.809Z,99.99
2018-10-12T23:27:54.799Z,99.99
2018-10-12T23:28:54.782Z,99.99
2018-10-12T23:29:54.761Z,99.99
2018-10-12T23:30:54.769Z,99.99
2018-10-12T23:31:54.732Z,99.99
2018-10-12T23:32:54.717Z,99.99
2018-10-12T23:33:54.700Z,99.99
2018-10-12T23:34:54.685Z,99.99
2018-10-12T23:35:54.709Z,99.99
2018-10-12T23:36:54.656Z,99.99
2018-10-12T23:37:54.639Z,99.99
2018-10-12T23:38:54.620Z,99.99
2018-10-12T23:39:54.607Z,99.99
2018-10-12T23:40:54.589Z,99.99
2018-10-12T23:41:54.596Z,99.99
2018-10-12T23:42:54.558Z,99.99
2018-10-12T23:43:54.542Z,99.99
2018-10-12T23:44:54.529Z,99.99
2018-10-12T23:45:54.505Z,99.99
2018-10-12T23:46:54.492Z,99.99
2018-10-12T23:47:54.496Z,99.99
2018-10-12T23:48:54.461Z,99.99
2018-10-12T23:49:54.442Z,99.99
